Time;durP1;ratioP1;P1;durP2;ratioP2;P2;SDS_P1;SDS_P2;PMS_P1;PMS_P2;Temp;Humidity;BMP_temperature;BMP_pressure;BME280_temperature;BME280_humidity;BME280_pressure;Samples;Min_cycle;Max_cycle;Signal;HPM_P1;HPM_P2
2022/11/25 00:00:33;;;;;;;78.22;52.08;;;;;;;6.82;100.00;100236.64;2861824;82;21594;-88
2022/11/25 00:04:38;;;;;;;83.27;54.95;;;;;;;6.91;100.00;100224.13;2861979;80;21067;-89
2022/11/25 00:08:41;;;;;;;73.10;50.90;;;;;;;6.89;100.00;100227.36;2856003;80;21012;-87
2022/11/25 00:12:42;;;;;;;88.92;54.53;;;;;;;6.88;100.00;100225.67;2862640;80;21058;-87
2022/11/25 00:16:43;;;;;;;67.50;44.98;;;;;;;6.95;100.00;100225.61;2890682;81;20982;-87
2022/11/25 00:20:53;;;;;;;75.03;49.27;;;;;;;7.05;100.00;100232.91;2867476;81;21028;-87
2022/11/25 00:24:54;;;;;;;82.17;53.42;;;;;;;7.15;100.00;100226.05;2891695;81;21047;-87
2022/11/25 00:29:00;;;;;;;70.57;50.40;;;;;;;7.27;100.00;100225.22;2894484;80;21022;-88
2022/11/25 00:33:04;;;;;;;70.83;52.17;;;;;;;7.13;99.99;100221.34;2904245;80;21114;-88
2022/11/25 00:37:05;;;;;;;88.22;52.30;;;;;;;6.94;100.00;100217.31;2909916;80;21081;-88
2022/11/25 00:45:26;;;;;;;82.62;50.38;;;;;;;6.79;100.00;100223.63;2862195;82;21574;-87
2022/11/25 00:49:28;;;;;;;80.40;50.17;;;;;;;6.93;100.00;100231.95;2894953;81;21030;-87
2022/11/25 00:53:30;;;;;;;87.90;55.12;;;;;;;6.96;100.00;100238.34;2899165;80;22374;-88
2022/11/25 00:57:31;;;;;;;78.47;52.98;;;;;;;7.02;100.00;100232.66;2898017;82;21011;-87
2022/11/25 01:01:33;;;;;;;80.42;45.75;;;;;;;7.07;100.00;100232.33;2880989;82;20979;-87
2022/11/25 01:05:34;;;;;;;60.03;40.40;;;;;;;7.15;100.00;100220.77;2892919;80;21157;-88
2022/11/25 01:09:36;;;;;;;61.37;44.83;;;;;;;7.10;100.00;100229.50;2850312;82;21054;-88
2022/11/25 01:13:42;;;;;;;62.13;43.17;;;;;;;6.93;100.00;100232.81;2846338;83;21712;-87
2022/11/25 01:17:43;;;;;;;70.50;40.52;;;;;;;6.77;100.00;100237.42;2823735;82;21074;-86
2022/11/25 01:21:45;;;;;;;59.23;41.42;;;;;;;6.63;100.00;100240.50;2814631;82;21057;-87
2022/11/25 01:25:47;;;;;;;68.07;43.52;;;;;;;6.55;100.00;100232.25;2823613;82;21034;-87
2022/11/25 01:29:48;;;;;;;64.95;44.60;;;;;;;6.61;100.00;100243.73;2908171;80;22451;-87
2022/11/25 01:34:00;;;;;;;70.10;44.15;;;;;;;6.79;100.00;100243.00;2871074;81;21058;-88
2022/11/25 01:38:01;;;;;;;70.30;46.60;;;;;;;6.75;100.00;100241.48;2900501;80;21045;-89
2022/11/25 01:42:03;;;;;;;57.33;39.15;;;;;;;6.77;100.00;100240.07;2889755;81;20976;-89
2022/11/25 01:46:24;;;;;;;59.35;41.35;;;;;;;6.80;100.00;100238.54;2854728;81;22178;-87
2022/11/25 01:50:27;;;;;;;65.62;41.98;;;;;;;6.79;100.00;100238.17;2803736;83;21072;-88
2022/11/25 01:58:43;;;;;;;58.78;40.43;;;;;;;6.84;100.00;100242.20;2796562;83;21430;-87
2022/11/25 02:02:48;;;;;;;57.05;38.67;;;;;;;6.92;100.00;100248.30;2800442;83;22394;-88
2022/11/25 02:06:56;;;;;;;59.18;36.23;;;;;;;6.98;100.00;100254.49;2829892;83;21076;-88
2022/11/25 02:11:03;;;;;;;47.15;32.70;;;;;;;7.06;100.00;100251.33;2700083;86;21185;-88
2022/11/25 02:15:05;;;;;;;48.60;33.42;;;;;;;7.08;100.00;100245.95;2769823;84;21203;-88
2022/11/25 02:19:12;;;;;;;57.20;35.88;;;;;;;6.97;100.00;100244.87;2737958;85;21099;-88
2022/11/25 02:23:43;;;;;;;54.50;36.90;;;;;;;6.75;100.00;100244.62;2732435;85;21543;-88
2022/11/25 02:27:48;;;;;;;47.90;33.88;;;;;;;6.64;100.00;100246.66;2801618;83;21086;-88
2022/11/25 02:31:50;;;;;;;52.35;36.17;;;;;;;6.62;100.00;100253.84;2777448;84;21017;-88
2022/11/25 02:36:04;;;;;;;48.83;34.48;;;;;;;6.68;100.00;100260.03;2801382;84;21046;-88
2022/11/25 02:40:07;;;;;;;54.95;36.48;;;;;;;6.74;100.00;100254.82;2786320;84;21573;-88
2022/11/25 02:44:09;;;;;;;50.05;33.67;;;;;;;6.77;100.00;100255.94;2784632;84;21030;-88
2022/11/25 02:48:10;;;;;;;56.70;37.67;;;;;;;6.77;100.00;100255.94;2757288;85;21085;-88
2022/11/25 02:52:12;;;;;;;50.63;33.90;;;;;;;6.78;100.00;100257.63;2786048;84;21652;-87
2022/11/25 02:56:15;;;;;;;47.78;31.97;;;;;;;6.82;100.00;100254.69;2789643;84;21050;-87
2022/11/25 03:00:18;;;;;;;56.10;35.52;;;;;;;6.82;100.00;100261.75;2750249;84;21061;-87
2022/11/25 03:04:19;;;;;;;54.60;35.00;;;;;;;6.83;100.00;100263.45;2771743;84;21044;-87
2022/11/25 03:08:20;;;;;;;43.25;32.95;;;;;;;6.90;100.00;100254.17;2726940;84;21553;-87
2022/11/25 03:12:22;;;;;;;51.02;34.25;;;;;;;6.95;100.00;100253.84;2724170;84;21057;-87
2022/11/25 03:16:23;;;;;;;53.98;34.45;;;;;;;6.90;100.00;100251.53;2764711;85;21109;-87
2022/11/25 03:20:25;;;;;;;52.80;35.55;;;;;;;6.91;100.00;100252.36;2768683;84;21034;-87
2022/11/25 03:24:26;;;;;;;64.15;36.38;;;;;;;7.11;100.00;100263.77;2717906;84;21077;-88
2022/11/25 03:28:28;;;;;;;55.85;35.03;;;;;;;7.31;100.00;100258.08;2787828;83;21011;-88
2022/11/25 03:32:29;;;;;;;47.40;33.38;;;;;;;7.36;100.00;100255.46;2809008;82;21088;-88
2022/11/25 03:36:30;;;;;;;50.25;35.83;;;;;;;7.18;100.00;100261.55;2829449;82;21324;-88
2022/11/25 03:40:31;;;;;;;57.93;36.10;;;;;;;7.17;100.00;100271.77;2827968;83;22611;-87
2022/11/25 03:44:33;;;;;;;48.23;34.63;;;;;;;7.20;100.00;100270.23;2853926;82;21019;-87
2022/11/25 03:48:34;;;;;;;48.28;33.58;;;;;;;7.28;100.00;100266.60;2796791;83;20988;-88
2022/11/25 03:52:36;;;;;;;42.43;30.37;;;;;;;7.19;100.00;100265.89;2829275;82;21019;-88
2022/11/25 03:56:37;;;;;;;46.45;31.68;;;;;;;7.09;100.00;100264.84;2830742;83;21129;-88
2022/11/25 04:00:39;;;;;;;51.25;32.90;;;;;;;7.08;100.00;100269.76;2773852;83;21060;-87
2022/11/25 04:04:40;;;;;;;47.40;32.85;;;;;;;7.18;100.00;100265.52;2752768;86;21029;-91
2022/11/25 04:08:41;;;;;;;49.35;33.20;;;;;;;7.11;100.00;100260.29;2764747;86;21009;-90
2022/11/25 04:12:45;;;;;;;44.53;33.08;;;;;;;7.06;100.00;100269.84;2744241;85;21470;-91
2022/11/25 04:16:47;;;;;;;57.05;32.88;;;;;;;7.07;100.00;100272.00;2741417;86;21077;-90
2022/11/25 04:20:48;;;;;;;47.83;33.80;;;;;;;7.04;100.00;100278.37;2765225;86;21022;-88
2022/11/25 04:24:49;;;;;;;47.50;34.18;;;;;;;6.94;100.00;100287.39;2765296;85;21056;-89
2022/11/25 04:28:51;;;;;;;42.85;31.35;;;;;;;6.95;100.00;100290.41;2743301;85;21031;-88
2022/11/25 04:32:52;;;;;;;52.88;34.23;;;;;;;6.92;100.00;100284.47;2907430;80;21061;-88
2022/11/25 04:36:54;;;;;;;47.43;31.68;;;;;;;6.95;100.00;100290.41;2906896;80;21054;-88
2022/11/25 04:40:55;;;;;;;46.92;34.58;;;;;;;7.04;100.00;100288.08;2906424;80;21094;-88
2022/11/25 04:44:56;;;;;;;45.17;30.48;;;;;;;7.16;100.00;100283.30;2906682;81;20983;-88
2022/11/25 04:48:58;;;;;;;50.85;34.63;;;;;;;7.13;100.00;100288.80;2931299;80;21073;-88
2022/11/25 04:52:59;;;;;;;49.77;33.30;;;;;;;7.15;100.00;100292.19;2891533;80;21026;-88
2022/11/25 04:57:00;;;;;;;47.93;32.08;;;;;;;7.11;100.00;100286.73;2921375;80;21436;-88
2022/11/25 05:01:01;;;;;;;44.88;31.62;;;;;;;7.26;100.00;100302.05;2929124;80;20991;-89
2022/11/25 05:05:04;;;;;;;45.92;32.10;;;;;;;7.35;100.00;100301.90;2884605;80;21533;-87
2022/11/25 05:09:06;;;;;;;53.13;31.00;;;;;;;7.19;100.00;100302.09;2891081;80;21544;-86
2022/11/25 05:13:07;;;;;;;47.17;32.05;;;;;;;7.11;100.00;100303.94;2899364;80;21077;-87
2022/11/25 05:17:19;;;;;;;136.25;64.87;;;;;;;7.02;100.00;100309.83;2925270;80;21038;-88
2022/11/25 05:21:20;;;;;;;122.45;61.98;;;;;;;6.97;100.00;100312.31;2925250;80;21003;-87
2022/11/25 05:25:23;;;;;;;57.90;36.98;;;;;;;7.04;100.00;100315.86;2909298;80;21061;-86
2022/11/25 05:29:24;;;;;;;49.98;33.35;;;;;;;7.11;100.00;100318.48;2859136;80;21023;-86
2022/11/25 05:33:25;;;;;;;54.00;30.68;;;;;;;7.14;100.00;100319.59;2840202;81;21644;-86
2022/11/25 05:37:27;;;;;;;51.20;34.92;;;;;;;7.17;100.00;100324.67;2854463;81;20976;-88
2022/11/25 05:41:28;;;;;;;60.75;39.78;;;;;;;7.28;100.00;100321.30;2874297;81;21007;-88
2022/11/25 05:45:29;;;;;;;59.40;33.55;;;;;;;7.52;100.00;100321.91;2875067;81;21035;-88
2022/11/25 05:49:30;;;;;;;69.32;40.40;;;;;;;7.46;100.00;100316.55;2875935;81;21468;-88
2022/11/25 05:53:32;;;;;;;59.08;40.95;;;;;;;7.47;100.00;100322.70;2877916;81;20980;-88
2022/11/25 05:57:33;;;;;;;68.12;41.70;;;;;;;7.36;100.00;100327.41;2898251;81;20994;-86
2022/11/25 06:01:34;;;;;;;57.73;36.98;;;;;;;7.35;100.00;100325.22;2887922;81;21129;-86
2022/11/25 06:05:36;;;;;;;45.60;33.33;;;;;;;7.34;100.00;100333.28;2875677;82;21038;-87
2022/11/25 06:09:37;;;;;;;49.00;29.00;;;;;;;7.29;100.00;100334.91;2832636;82;21622;-86
2022/11/25 06:13:40;;;;;;;54.27;35.38;;;;;;;7.25;100.00;100335.58;2873577;81;21018;-88
2022/11/25 06:17:41;;;;;;;47.27;33.67;;;;;;;7.27;100.00;100331.52;2851765;80;21030;-87
2022/11/25 06:21:42;;;;;;;47.85;32.88;;;;;;;7.38;100.00;100334.77;2876940;80;21008;-87
2022/11/25 06:25:44;;;;;;;52.27;31.05;;;;;;;7.49;100.00;100342.83;2882431;80;21560;-88
2022/11/25 06:29:45;;;;;;;49.65;33.02;;;;;;;7.44;100.00;100350.22;2876311;79;21039;-88
2022/11/25 06:33:49;;;;;;;48.70;34.15;;;;;;;7.31;100.00;100346.72;2885465;80;21012;-87
2022/11/25 06:37:50;;;;;;;65.80;37.98;;;;;;;7.16;100.00;100346.80;2873453;81;21464;-87
2022/11/25 06:41:51;;;;;;;57.90;38.17;;;;;;;7.04;100.00;100351.56;2861211;80;21051;-88
2022/11/25 06:45:52;;;;;;;49.77;35.08;;;;;;;6.93;100.00;100350.48;2871903;81;21010;-87
2022/11/25 06:49:54;;;;;;;48.70;34.83;;;;;;;6.92;100.00;100352.77;2864342;80;21028;-88
2022/11/25 06:53:55;;;;;;;55.30;35.70;;;;;;;6.98;100.00;100358.96;2894358;80;21016;-87
2022/11/25 06:57:57;;;;;;;60.92;37.75;;;;;;;7.11;100.00;100358.16;2847132;82;21038;-87
2022/11/25 07:01:58;;;;;;;55.30;37.13;;;;;;;7.22;100.00;100361.41;2886047;81;21028;-87
2022/11/25 07:06:00;;;;;;;55.40;38.25;;;;;;;7.35;100.00;100362.77;2869189;81;21053;-87
2022/11/25 07:10:01;;;;;;;48.00;32.30;;;;;;;7.55;100.00;100366.23;2859853;81;21075;-88
2022/11/25 07:14:07;;;;;;;49.85;35.10;;;;;;;7.56;100.00;100366.60;2860634;80;21031;-88
2022/11/25 07:18:08;;;;;;;49.67;34.18;;;;;;;7.47;100.00;100373.86;2878108;80;20969;-88
2022/11/25 07:22:10;;;;;;;51.77;36.20;;;;;;;7.35;100.00;100377.31;2868710;80;21012;-87
2022/11/25 07:26:16;;;;;;;51.02;34.53;;;;;;;7.29;100.00;100384.72;2886141;80;21039;-87
2022/11/25 07:30:18;;;;;;;49.67;35.70;;;;;;;7.40;100.00;100387.11;2868133;81;21011;-87
2022/11/25 07:34:20;;;;;;;53.78;34.38;;;;;;;7.45;100.00;100391.61;2890521;82;21098;-87
2022/11/25 07:38:21;;;;;;;41.53;31.93;;;;;;;7.45;100.00;100387.64;2889973;81;21056;-87
2022/11/25 07:42:23;;;;;;;57.50;35.52;;;;;;;7.57;100.00;100382.02;2918290;80;21497;-88
2022/11/25 07:46:35;;;;;;;64.00;42.85;;;;;;;7.70;100.00;100387.33;2941141;80;21039;-87
2022/11/25 07:50:37;;;;;;;65.25;42.50;;;;;;;7.80;100.00;100381.75;2908237;80;21078;-86
2022/11/25 07:54:38;;;;;;;46.88;31.30;;;;;;;8.01;100.00;100387.84;2895162;80;20999;-87
2022/11/25 08:13:19;;;;;;;62.55;39.70;;;;;;;8.53;100.00;100398.41;2862108;81;22144;-87
2022/11/25 08:17:20;;;;;;;49.93;33.70;;;;;;;8.66;100.00;100392.61;2846469;83;21518;-88
2022/11/25 08:21:22;;;;;;;46.30;34.65;;;;;;;8.82;100.00;100391.47;2842669;82;21042;-87
2022/11/25 08:25:23;;;;;;;74.53;52.78;;;;;;;8.87;100.00;100392.00;2846851;83;21659;-87
2022/11/25 08:29:24;;;;;;;162.88;114.22;;;;;;;8.88;100.00;100400.33;2851813;81;21081;-87
2022/11/25 08:33:26;;;;;;;102.92;65.85;;;;;;;8.96;100.00;100400.59;2853667;82;21545;-87
2022/11/25 08:37:30;;;;;;;57.48;40.28;;;;;;;9.12;100.00;100399.48;2812785;83;20998;-85
2022/11/25 08:41:35;;;;;;;67.17;41.25;;;;;;;9.17;100.00;100400.47;2843683;82;21762;-87
2022/11/25 08:45:38;;;;;;;61.67;40.90;;;;;;;9.15;100.00;100400.57;2853407;82;21045;-87
2022/11/25 08:49:39;;;;;;;131.20;79.40;;;;;;;9.11;100.00;100404.42;2813931;83;21101;-87
2022/11/25 08:53:42;;;;;;;71.92;42.93;;;;;;;9.04;100.00;100409.79;2850695;83;21089;-87
2022/11/25 08:57:43;;;;;;;79.25;50.40;;;;;;;9.05;100.00;100412.84;2850398;83;21941;-87
2022/11/25 09:01:44;;;;;;;70.57;50.35;;;;;;;9.17;100.00;100414.57;2812961;82;21006;-87
2022/11/25 09:05:46;;;;;;;142.05;87.75;;;;;;;9.20;100.00;100417.48;2810823;83;21049;-88
2022/11/25 09:09:48;;;;;;;115.62;67.90;;;;;;;9.25;100.00;100420.17;2817643;83;21552;-88
2022/11/25 09:13:50;;;;;;;63.80;38.42;;;;;;;9.41;100.00;100422.52;2838325;82;21097;-87
2022/11/25 09:18:04;;;;;;;63.45;35.50;;;;;;;9.41;100.00;100417.68;2841422;83;21038;-88
2022/11/25 09:22:06;;;;;;;30.40;23.60;;;;;;;9.39;100.00;100412.97;2836905;83;21006;-87
2022/11/25 09:26:16;;;;;;;39.73;26.93;;;;;;;9.38;100.00;100416.13;2839429;83;21487;-88
2022/11/25 09:30:18;;;;;;;43.52;26.37;;;;;;;9.52;100.00;100409.77;2838179;83;21030;-87
2022/11/25 09:34:19;;;;;;;72.10;45.60;;;;;;;9.60;100.00;100411.84;2825198;82;21101;-87
2022/11/25 09:38:21;;;;;;;38.60;25.55;;;;;;;9.62;100.00;100409.05;2843876;80;21006;-88
2022/11/25 09:47:16;;;;;;;35.60;22.10;;;;;;;9.57;100.00;100412.08;2837914;83;20999;-88
2022/11/25 09:51:26;;;;;;;33.20;23.42;;;;;;;9.56;100.00;100413.87;2839600;82;21043;-88
2022/11/25 09:55:32;;;;;;;28.47;20.60;;;;;;;9.67;100.00;100420.20;2837619;82;21598;-88
2022/11/25 09:59:42;;;;;;;29.27;21.55;;;;;;;9.78;100.00;100416.22;2837786;83;21050;-88
2022/11/25 10:03:49;;;;;;;29.87;21.27;;;;;;;9.78;100.00;100412.73;2837394;83;21577;-88
2022/11/25 10:07:54;;;;;;;32.78;20.92;;;;;;;9.87;100.00;100410.69;2835591;82;21065;-88
2022/11/25 10:12:29;;;;;;;32.95;22.45;;;;;;;9.88;100.00;100407.56;2794646;83;21516;-88
2022/11/25 10:16:57;;;;;;;20.57;14.28;;;;;;;9.96;100.00;100411.31;2832070;83;21601;-88
2022/11/25 10:20:59;;;;;;;19.77;15.10;;;;;;;10.19;100.00;100413.13;2807671;83;21034;-88
2022/11/25 10:25:14;;;;;;;22.70;15.72;;;;;;;10.22;100.00;100414.21;2805708;83;21594;-87
2022/11/25 10:29:20;;;;;;;22.22;15.13;;;;;;;10.22;100.00;100412.88;2793763;83;21054;-88
2022/11/25 10:33:36;;;;;;;29.48;18.67;;;;;;;10.21;100.00;100415.18;2836513;83;21018;-87
2022/11/25 10:37:42;;;;;;;26.30;15.63;;;;;;;10.21;100.00;100412.05;2830381;83;20991;-87
2022/11/25 10:41:52;;;;;;;28.02;19.23;;;;;;;10.15;100.00;100401.41;2794197;82;21050;-87
2022/11/25 10:46:36;;;;;;;21.40;16.48;;;;;;;10.15;100.00;100401.41;2822916;83;21454;-88
2022/11/25 10:50:55;;;;;;;22.22;15.48;;;;;;;10.33;100.00;100422.70;2712785;86;21094;-88
2022/11/25 10:55:15;;;;;;;19.92;15.95;;;;;;;10.47;100.00;100417.65;2690622;86;21130;-88
2022/11/25 10:59:30;;;;;;;22.77;14.90;;;;;;;10.57;100.00;100423.44;2714828;86;21543;-87
2022/11/25 11:03:32;;;;;;;23.40;15.90;;;;;;;10.63;100.00;100418.12;2718133;86;21054;-87
2022/11/25 11:07:41;;;;;;;18.15;14.43;;;;;;;10.61;99.04;100412.55;2736043;86;21600;-88
2022/11/25 11:11:49;;;;;;;24.92;14.05;;;;;;;10.61;100.00;100414.74;2702321;86;21762;-87
2022/11/25 11:15:52;;;;;;;24.12;20.45;;;;;;;10.68;100.00;100402.63;2731305;86;21074;-88
2022/11/25 11:20:04;;;;;;;28.07;19.00;;;;;;;10.76;99.97;100405.14;2719765;86;21523;-88
2022/11/25 11:24:36;;;;;;;19.77;13.78;;;;;;;10.81;99.78;100400.31;2765791;83;21084;-88
2022/11/25 11:28:40;;;;;;;21.35;16.30;;;;;;;10.76;99.13;100403.34;2833474;83;21050;-87
2022/11/25 11:32:46;;;;;;;37.42;21.70;;;;;;;10.82;100.00;100407.33;2832258;83;21095;-87
2022/11/25 11:37:37;;;;;;;38.70;25.20;;;;;;;10.87;100.00;100407.79;2814592;83;21069;-89
2022/11/25 11:42:08;;;;;;;22.70;16.87;;;;;;;10.81;97.86;100407.80;2835196;81;21018;-88
2022/11/25 11:46:38;;;;;;;21.80;13.53;;;;;;;10.89;98.88;100395.20;2839113;82;21046;-87
2022/11/25 11:50:47;;;;;;;15.98;11.73;;;;;;;10.92;97.79;100398.94;2836150;82;21335;-88
2022/11/25 11:55:23;;;;;;;30.37;21.55;;;;;;;10.93;98.26;100402.46;2840745;82;21372;-89
2022/11/25 11:59:35;;;;;;;29.90;16.82;;;;;;;11.05;98.75;100400.10;2798998;83;21127;-88
2022/11/25 12:03:45;;;;;;;23.65;17.48;;;;;;;11.07;97.67;100406.64;2780839;83;21084;-87
2022/11/25 12:08:17;;;;;;;13.13;10.98;;;;;;;11.11;97.32;100398.76;2827528;82;21085;-88
2022/11/25 12:12:24;;;;;;;18.32;12.70;;;;;;;11.12;97.65;100404.44;2826718;83;20959;-88
2022/11/25 12:16:35;;;;;;;26.65;15.72;;;;;;;10.93;97.42;100403.79;2870313;81;21125;-88
2022/11/25 12:20:44;;;;;;;16.02;10.98;;;;;;;10.91;98.62;100397.75;2845766;81;21124;-89
2022/11/25 12:25:09;;;;;;;21.30;16.20;;;;;;;10.77;98.32;100389.53;2837568;83;21058;-88
2022/11/25 12:29:16;;;;;;;15.53;11.12;;;;;;;10.89;99.57;100394.34;2835080;83;21077;-89
2022/11/25 12:33:31;;;;;;;17.55;12.90;;;;;;;10.99;99.21;100397.45;2849869;82;21077;-89
2022/11/25 12:37:56;;;;;;;30.23;17.90;;;;;;;10.91;97.79;100402.58;2843456;83;21045;-88
2022/11/25 12:42:05;;;;;;;29.77;16.97;;;;;;;10.90;97.83;100403.55;2827832;81;21073;-87
2022/11/25 12:46:18;;;;;;;27.52;18.00;;;;;;;10.92;98.50;100406.92;2850179;83;21029;-89
2022/11/25 12:50:37;;;;;;;19.98;13.03;;;;;;;10.83;97.93;100398.38;2849514;83;21604;-88
2022/11/25 12:55:04;;;;;;;19.85;15.70;;;;;;;10.87;98.52;100401.14;2826842;82;21025;-88
2022/11/25 12:59:43;;;;;;;96.90;53.15;;;;;;;10.82;98.16;100403.34;2848895;83;21018;-88
2022/11/25 13:04:29;;;;;;;51.65;31.82;;;;;;;10.89;98.45;100404.52;2849939;83;21073;-88
2022/11/25 13:09:06;;;;;;;52.53;32.85;;;;;;;10.79;97.95;100403.09;2881969;81;21025;-88
2022/11/25 13:13:48;;;;;;;30.68;20.25;;;;;;;10.71;97.50;100402.87;2852296;83;21050;-88
2022/11/25 13:17:57;;;;;;;23.38;17.30;;;;;;;10.71;98.81;100404.20;2831172;82;21102;-88
2022/11/25 13:22:03;;;;;;;30.12;17.87;;;;;;;10.69;98.69;100400.33;2828927;84;21051;-88
2022/11/25 13:26:32;;;;;;;23.47;16.20;;;;;;;10.74;99.21;100409.75;2791432;84;21015;-88
2022/11/25 13:30:38;;;;;;;21.73;17.50;;;;;;;10.82;99.68;100407.33;2804614;84;21007;-89
2022/11/25 13:34:39;;;;;;;31.60;20.97;;;;;;;10.94;99.32;100406.31;2822444;84;21597;-88
2022/11/25 13:38:54;;;;;;;54.00;33.08;;;;;;;10.98;98.02;100406.41;2828772;82;21063;-88
2022/11/25 13:42:59;;;;;;;72.53;38.40;;;;;;;10.93;98.16;100408.61;2829330;84;21062;-88
2022/11/25 13:47:42;;;;;;;48.58;33.13;;;;;;;11.03;98.75;100412.70;2788410;84;21012;-88
2022/11/25 13:51:58;;;;;;;46.73;28.47;;;;;;;11.04;98.23;100405.58;2827234;84;21003;-88
2022/11/25 13:56:27;;;;;;;51.48;29.50;;;;;;;11.01;97.97;100410.65;2837831;83;20990;-88
2022/11/25 14:00:42;;;;;;;51.33;35.88;;;;;;;10.87;97.20;100405.12;2852731;83;21545;-88
2022/11/25 14:05:14;;;;;;;49.58;29.95;;;;;;;10.80;97.78;100415.89;2849600;83;21108;-88
2022/11/25 14:09:33;;;;;;;68.02;43.00;;;;;;;10.88;98.73;100413.94;2825468;83;21537;-88
2022/11/25 14:14:09;;;;;;;94.83;51.65;;;;;;;10.99;98.44;100410.77;2829301;81;21011;-88
2022/11/25 14:18:45;;;;;;;67.92;43.10;;;;;;;10.96;97.80;100418.17;2861327;83;21108;-88
2022/11/25 14:23:25;;;;;;;57.95;31.45;;;;;;;10.71;99.06;100418.34;2861341;81;21101;-88
2022/11/25 14:27:32;;;;;;;38.23;27.20;;;;;;;10.50;99.94;100421.39;2846637;83;21002;-90
2022/11/25 14:31:57;;;;;;;37.78;25.02;;;;;;;10.43;100.00;100429.00;2857886;81;21540;-90
2022/11/25 14:36:09;;;;;;;46.33;29.05;;;;;;;10.46;100.00;100430.59;2854927;83;21644;-90
2022/11/25 14:40:21;;;;;;;81.82;50.33;;;;;;;10.43;100.00;100436.52;2837638;83;21014;-90
2022/11/25 14:44:31;;;;;;;72.27;46.35;;;;;;;10.43;100.00;100443.16;2801252;83;21037;-91
2022/11/25 14:48:32;;;;;;;97.57;65.60;;;;;;;10.38;100.00;100441.30;2860264;82;21034;-88
2022/11/25 14:52:35;;;;;;;114.65;75.08;;;;;;;10.34;100.00;100444.34;2862351;81;21025;-87
2022/11/25 14:56:38;;;;;;;44.35;32.93;;;;;;;10.27;100.00;100443.97;2856755;81;21069;-89
2022/11/25 15:01:00;;;;;;;36.83;28.40;;;;;;;10.21;100.00;100444.42;2859363;81;21010;-89
2022/11/25 15:05:16;;;;;;;46.10;29.92;;;;;;;10.15;99.96;100444.45;2846391;83;21001;-89
2022/11/25 15:09:25;;;;;;;50.60;32.10;;;;;;;10.01;100.00;100446.81;2798239;83;21885;-88
2022/11/25 15:13:43;;;;;;;131.05;78.75;;;;;;;9.94;100.00;100449.59;2830367;83;21532;-90
2022/11/25 15:17:45;;;;;;;144.97;89.97;;;;;;;9.94;98.49;100452.25;2822742;82;21114;-90
2022/11/25 15:21:51;;;;;;;114.57;66.25;;;;;;;9.84;98.40;100446.33;2811837;83;21019;-89
2022/11/25 15:25:54;;;;;;;53.73;33.80;;;;;;;9.77;98.93;100450.39;2826638;83;20991;-90
2022/11/25 15:29:56;;;;;;;100.42;64.65;;;;;;;9.75;98.37;100449.66;2826751;83;21657;-90
2022/11/25 15:34:01;;;;;;;77.05;48.40;;;;;;;9.71;98.76;100452.20;2825493;83;21018;-90
2022/11/25 15:38:40;;;;;;;109.32;69.35;;;;;;;9.74;98.91;100449.30;2817360;83;21006;-90
2022/11/25 15:42:41;;;;;;;62.95;31.97;;;;;;;9.80;98.43;100452.81;2826092;83;20967;-89
2022/11/25 15:47:03;;;;;;;38.73;25.82;;;;;;;9.90;98.36;100455.61;2826479;83;21053;-90
2022/11/25 15:51:22;;;;;;;87.30;50.58;;;;;;;9.94;97.22;100457.09;2825774;82;21045;-88
2022/11/25 15:55:34;;;;;;;73.50;48.83;;;;;;;9.80;96.13;100455.47;2826812;82;21072;-90
2022/11/25 15:59:56;;;;;;;53.75;36.17;;;;;;;9.48;97.31;100457.44;2830238;83;21311;-89
2022/11/25 16:04:20;;;;;;;51.25;31.33;;;;;;;9.20;98.71;100463.44;2805915;83;21023;-89
2022/11/25 16:08:36;;;;;;;80.85;48.28;;;;;;;8.97;99.61;100468.63;2832062;83;21060;-89
2022/11/25 16:12:37;;;;;;;97.08;53.90;;;;;;;8.79;99.71;100466.83;2769262;83;21148;-89
2022/11/25 16:16:39;;;;;;;100.02;53.38;;;;;;;8.70;99.56;100465.68;2774592;85;21046;-89
2022/11/25 16:20:51;;;;;;;91.60;52.93;;;;;;;8.68;99.16;100467.59;2805951;84;21514;-89
2022/11/25 16:24:54;;;;;;;101.02;58.98;;;;;;;8.71;98.30;100471.35;2778562;85;21807;-91
2022/11/25 16:28:59;;;;;;;128.78;68.30;;;;;;;8.67;96.19;100473.00;2804820;84;21608;-89
2022/11/25 16:33:01;;;;;;;111.65;63.10;;;;;;;8.49;96.60;100476.45;2775726;85;21058;-90
2022/11/25 16:37:02;;;;;;;118.25;70.10;;;;;;;8.29;98.14;100483.50;2805873;84;21019;-89
2022/11/25 16:41:18;;;;;;;142.57;71.33;;;;;;;8.15;97.71;100487.10;2808362;83;21011;-90
2022/11/25 16:45:26;;;;;;;71.57;42.20;;;;;;;7.98;97.68;100486.94;2807032;84;21023;-89
2022/11/25 16:49:30;;;;;;;50.95;30.25;;;;;;;7.83;98.74;100490.12;2722495;84;21621;-90
2022/11/25 16:53:31;;;;;;;33.78;23.47;;;;;;;7.74;98.44;100494.73;2805905;84;21062;-90
2022/11/25 16:57:33;;;;;;;30.65;19.57;;;;;;;7.64;97.71;100491.84;2784445;84;21026;-90
2022/11/25 17:01:34;;;;;;;24.27;15.72;;;;;;;7.58;97.73;100494.41;2792208;84;21051;-91
2022/11/25 17:05:36;;;;;;;23.30;16.05;;;;;;;7.52;97.21;100500.58;2800342;84;21522;-89
2022/11/25 17:09:37;;;;;;;24.52;16.85;;;;;;;7.48;96.79;100497.31;2791007;84;21062;-88
2022/11/25 17:13:43;;;;;;;25.82;14.70;;;;;;;7.45;96.65;100503.27;2780154;83;21035;-90
2022/11/25 17:17:46;;;;;;;;;;;;;;;7.43;96.16;100500.25;2746365;86;21078;-91
2022/11/25 17:21:47;;;;;;;24.90;16.73;;;;;;;7.40;95.55;100510.17;2744477;86;20117;-89
2022/11/25 17:25:49;;;;;;;22.85;15.68;;;;;;;7.29;95.09;100509.09;2742270;86;21055;-90
2022/11/25 17:29:53;;;;;;;25.75;16.48;;;;;;;7.22;95.36;100507.77;2740257;86;21019;-89
2022/11/25 17:33:55;;;;;;;21.55;17.73;;;;;;;7.17;95.10;100513.84;2742945;85;21669;-91
2022/11/25 17:37:58;;;;;;;22.70;14.25;;;;;;;7.14;94.82;100519.33;2742486;85;21086;-90
2022/11/25 17:42:01;;;;;;;22.17;16.42;;;;;;;7.02;94.41;100518.77;2751421;85;21047;-91
2022/11/25 17:46:02;;;;;;;27.50;16.62;;;;;;;6.86;94.32;100521.92;2737297;86;21443;-88
2022/11/25 17:50:18;;;;;;;28.77;17.73;;;;;;;6.74;94.82;100529.77;2746175;85;21030;-90
2022/11/25 17:54:19;;;;;;;23.15;16.77;;;;;;;6.59;95.92;100532.90;2734982;86;21077;-90
2022/11/25 17:58:20;;;;;;;27.90;18.27;;;;;;;6.49;95.73;100535.25;2703984;86;21590;-89
2022/11/25 18:02:22;;;;;;;27.25;17.20;;;;;;;6.41;96.04;100539.67;2739710;85;21445;-90
2022/11/25 18:06:23;;;;;;;27.90;18.85;;;;;;;6.38;95.83;100543.34;2738884;85;21652;-89
2022/11/25 18:10:26;;;;;;;22.75;15.88;;;;;;;6.34;95.94;100547.12;2712617;86;21135;-88
2022/11/25 18:14:32;;;;;;;32.23;20.10;;;;;;;6.37;95.51;100544.74;2731718;86;21004;-89
2022/11/25 18:18:34;;;;;;;23.87;16.45;;;;;;;6.35;95.19;100554.10;2715492;86;21075;-90
2022/11/25 18:22:36;;;;;;;28.55;17.02;;;;;;;6.30;94.88;100558.82;2698911;86;21114;-90
2022/11/25 18:26:44;;;;;;;27.40;15.32;;;;;;;6.26;94.79;100561.23;2756654;84;21118;-90
2022/11/25 18:30:48;;;;;;;24.80;16.87;;;;;;;6.26;94.38;100561.23;2745517;86;21023;-90
2022/11/25 18:34:49;;;;;;;26.52;16.40;;;;;;;6.23;93.58;100567.58;2745684;86;21016;-90
2022/11/25 18:38:50;;;;;;;22.05;15.63;;;;;;;6.13;93.58;100576.52;2740556;86;21512;-91
2022/11/25 18:42:56;;;;;;;25.35;16.27;;;;;;;6.06;93.53;100575.64;2745517;86;21059;-87
2022/11/25 18:46:57;;;;;;;26.93;18.70;;;;;;;5.97;93.72;100580.95;2750445;85;21129;-89
2022/11/25 18:50:59;;;;;;;20.00;16.17;;;;;;;5.96;92.90;100585.85;2749239;85;21046;-89
2022/11/25 18:55:00;;;;;;;24.65;16.07;;;;;;;5.93;92.04;100586.03;2692459;86;21012;-91
2022/11/25 18:59:04;;;;;;;24.20;16.30;;;;;;;5.87;91.50;100576.67;2708793;86;20991;-91
2022/11/25 19:03:11;;;;;;;25.15;18.40;;;;;;;5.83;91.42;100579.95;2742727;86;21653;-87
2022/11/25 19:07:12;;;;;;;34.18;19.40;;;;;;;5.81;91.95;100588.42;2748193;85;21058;-91
2022/11/25 19:11:31;;;;;;;33.08;20.25;;;;;;;5.79;92.49;100584.16;2744861;86;21027;-91